Time;durP1;ratioP1;P1;durP2;ratioP2;P2;SDS_P1;SDS_P2;PMS_P1;PMS_P2;Temp;Humidity;BMP_temperature;BMP_pressure;BME280_temperature;BME280_humidity;BME280_pressure;Samples;Min_cycle;Max_cycle;Signal;HPM_P1;HPM_P2
2023/08/08 00:00:49;;;;;;;4.03;1.60;;;;;;;20.33;61.29;100468.09;5066129;28;20484;-62
2023/08/08 00:03:14;;;;;;;3.33;1.53;;;;;;;20.32;61.10;100468.47;5068032;28;20269;-62
2023/08/08 00:05:40;;;;;;;3.10;1.83;;;;;;;20.31;61.28;100476.25;5067759;28;20402;-62
2023/08/08 00:08:06;;;;;;;3.60;1.40;;;;;;;20.31;60.97;100484.03;5085494;28;20174;-62
2023/08/08 00:10:31;;;;;;;3.37;1.60;;;;;;;20.30;61.50;100477.47;5086143;28;20174;-62
2023/08/08 00:12:56;;;;;;;3.73;1.43;;;;;;;20.30;61.13;100474.59;5074242;28;20178;-62
2023/08/08 00:15:22;;;;;;;3.30;2.00;;;;;;;20.29;61.44;100481.56;5080684;28;20197;-62
2023/08/08 00:17:47;;;;;;;4.40;1.63;;;;;;;20.29;61.30;100481.56;5071097;28;20238;-62
2023/08/08 00:20:13;;;;;;;3.10;1.53;;;;;;;20.30;61.21;100479.50;5087129;28;20163;-62
2023/08/08 00:22:38;;;;;;;2.40;1.13;;;;;;;20.29;61.48;100477.84;5087276;28;20175;-62
2023/08/08 00:25:04;;;;;;;2.23;1.30;;;;;;;20.28;61.38;100473.34;5088533;28;20174;-62
2023/08/08 00:27:29;;;;;;;3.90;1.53;;;;;;;20.27;60.87;100466.75;5083996;28;20171;-62
2023/08/08 00:29:55;;;;;;;2.83;1.40;;;;;;;20.25;61.15;100474.94;5074394;28;20182;-62
2023/08/08 00:32:20;;;;;;;5.90;2.00;;;;;;;20.26;60.53;100470.03;5067666;28;20175;-62
2023/08/08 00:34:46;;;;;;;2.73;1.70;;;;;;;20.25;61.13;100462.63;5069481;28;20630;-63
2023/08/08 00:37:11;;;;;;;4.90;1.40;;;;;;;20.25;61.26;100459.75;5067522;28;20190;-62
2023/08/08 00:39:37;;;;;;;2.40;1.17;;;;;;;20.25;60.91;100456.91;5067555;28;20913;-62
2023/08/08 00:42:02;;;;;;;3.80;1.57;;;;;;;20.26;61.70;100455.72;5067676;28;20866;-63
2023/08/08 00:44:28;;;;;;;2.47;1.33;;;;;;;20.24;61.21;100449.50;5087948;28;20582;-62
2023/08/08 00:46:53;;;;;;;2.97;1.40;;;;;;;20.25;61.14;100448.28;5086899;28;20577;-63
2023/08/08 00:49:19;;;;;;;4.23;1.53;;;;;;;20.23;61.27;100450.75;5069815;28;20762;-63
2023/08/08 00:51:45;;;;;;;3.80;1.30;;;;;;;20.23;61.19;100456.47;5066038;28;20696;-62
2023/08/08 00:54:10;;;;;;;3.10;1.43;;;;;;;20.23;61.09;100451.56;5068816;28;20191;-63
2023/08/08 00:56:36;;;;;;;2.53;1.53;;;;;;;20.22;61.41;100452.75;5106426;28;20873;-62
2023/08/08 00:59:02;;;;;;;2.67;1.50;;;;;;;20.22;61.25;100454.81;5088443;28;20177;-63
2023/08/08 01:01:27;;;;;;;2.73;1.30;;;;;;;20.21;61.01;100456.84;5071370;28;20272;-62
2023/08/08 01:03:53;;;;;;;4.47;1.17;;;;;;;20.20;62.04;100449.47;5070127;28;20179;-62
2023/08/08 01:06:39;;;;;;;4.07;1.87;;;;;;;20.20;61.63;100448.63;5076491;28;20174;-63
2023/08/08 01:09:12;;;;;;;3.17;1.90;;;;;;;20.20;61.77;100449.47;5082992;28;20186;-62
2023/08/08 01:11:37;;;;;;;3.97;1.30;;;;;;;20.20;61.19;100442.91;5075440;28;20827;-62
2023/08/08 01:14:03;;;;;;;3.10;1.27;;;;;;;20.19;61.30;100450.69;5079580;28;20474;-62
2023/08/08 01:16:28;;;;;;;2.60;1.33;;;;;;;20.19;61.30;100439.22;5051979;28;20697;-63
2023/08/08 01:18:54;;;;;;;3.70;1.37;;;;;;;20.20;61.63;100443.75;5085477;28;20194;-62
2023/08/08 01:21:19;;;;;;;3.10;1.50;;;;;;;20.19;61.08;100444.97;5079963;28;20179;-62
2023/08/08 01:23:56;;;;;;;3.67;1.70;;;;;;;20.18;61.12;100445.34;5067660;28;20159;-62
2023/08/08 01:26:22;;;;;;;4.17;1.80;;;;;;;20.18;61.64;100439.63;5066288;28;20198;-62
2023/08/08 01:28:47;;;;;;;3.10;1.37;;;;;;;20.17;61.65;100438.78;5067657;28;20398;-62
2023/08/08 01:31:13;;;;;;;5.17;1.70;;;;;;;20.16;61.89;100442.06;5072140;28;20186;-63
2023/08/08 01:33:38;;;;;;;2.17;1.10;;;;;;;20.17;62.05;100440.84;5082549;28;20206;-63
2023/08/08 01:36:13;;;;;;;5.00;2.07;;;;;;;20.15;61.39;100434.63;5084020;28;20183;-62
2023/08/08 01:38:41;;;;;;;2.93;1.50;;;;;;;20.15;61.80;100441.22;5069870;28;20230;-62
2023/08/08 01:41:07;;;;;;;3.40;1.43;;;;;;;20.15;61.77;100435.47;5068663;28;20825;-62
2023/08/08 01:43:32;;;;;;;2.77;1.47;;;;;;;20.14;61.45;100439.56;5085515;28;20566;-63
2023/08/08 01:45:57;;;;;;;2.60;1.30;;;;;;;20.14;61.46;100436.69;5090179;28;20252;-63
2023/08/08 01:48:23;;;;;;;3.67;1.83;;;;;;;20.13;61.82;100437.09;5090185;28;20639;-62
2023/08/08 01:50:48;;;;;;;3.13;1.40;;;;;;;20.13;61.08;100435.06;5086992;28;20620;-62
2023/08/08 01:53:14;;;;;;;3.30;1.27;;;;;;;20.13;61.44;100434.22;5088947;28;20178;-62
2023/08/08 01:55:39;;;;;;;2.10;1.40;;;;;;;20.13;61.50;100440.78;5103762;28;20178;-62
2023/08/08 01:58:05;;;;;;;4.27;1.60;;;;;;;20.13;61.50;100439.94;5092601;28;20206;-62
2023/08/08 02:00:31;;;;;;;2.70;1.53;;;;;;;20.12;62.10;100441.97;5090933;28;20208;-62
2023/08/08 02:02:56;;;;;;;3.00;1.30;;;;;;;20.11;61.15;100433.78;5086119;28;20432;-62
2023/08/08 02:05:22;;;;;;;3.00;1.77;;;;;;;20.11;61.67;100446.06;5070591;28;20171;-62
2023/08/08 02:07:47;;;;;;;4.70;1.60;;;;;;;20.11;61.90;100451.78;5077791;28;20581;-62
2023/08/08 02:10:13;;;;;;;4.87;1.40;;;;;;;20.11;61.70;100437.47;5081424;28;20194;-62
2023/08/08 02:12:38;;;;;;;2.20;1.27;;;;;;;20.09;61.92;100437.03;5072791;28;20187;-62
2023/08/08 02:15:04;;;;;;;2.43;1.23;;;;;;;20.10;61.31;100441.56;5072547;28;20179;-62
2023/08/08 02:17:30;;;;;;;4.00;1.63;;;;;;;20.10;61.75;100432.97;5069991;28;20235;-62
2023/08/08 02:19:55;;;;;;;2.67;1.50;;;;;;;20.08;61.86;100429.66;5079096;28;20429;-62
2023/08/08 02:22:21;;;;;;;2.73;1.20;;;;;;;20.09;61.71;100434.19;5082948;28;20190;-62
2023/08/08 02:24:47;;;;;;;2.57;1.53;;;;;;;20.07;61.35;100422.25;5089022;28;20190;-62
2023/08/08 02:27:12;;;;;;;3.10;1.60;;;;;;;20.08;61.36;100435.41;5083234;28;20498;-62
2023/08/08 02:29:38;;;;;;;4.03;1.60;;;;;;;20.07;61.55;100433.72;5070079;28;20163;-62
2023/08/08 02:32:04;;;;;;;4.90;2.00;;;;;;;20.07;61.65;100433.72;5078672;28;20194;-62
2023/08/08 02:34:29;;;;;;;2.27;1.37;;;;;;;20.06;61.62;100432.03;5076202;28;20211;-62
2023/08/08 02:36:55;;;;;;;2.87;1.70;;;;;;;20.06;61.58;100437.78;5075192;28;20203;-62
2023/08/08 02:39:20;;;;;;;2.40;1.40;;;;;;;20.06;61.40;100437.78;5069471;28;20175;-62
2023/08/08 02:41:45;;;;;;;3.10;1.87;;;;;;;20.06;61.56;100443.50;5067866;28;20175;-62
2023/08/08 02:44:11;;;;;;;2.93;1.63;;;;;;;20.07;61.83;100444.34;5072832;28;20178;-62
2023/08/08 02:46:37;;;;;;;3.10;1.77;;;;;;;20.05;61.64;100444.72;5084575;28;20188;-62
2023/08/08 02:49:04;;;;;;;2.87;1.57;;;;;;;20.06;61.26;100440.63;5069099;28;20187;-62
2023/08/08 02:51:29;;;;;;;5.37;1.60;;;;;;;20.05;61.73;100439.00;5078655;28;20478;-62
2023/08/08 02:53:55;;;;;;;7.73;1.80;;;;;;;20.05;61.19;100441.84;5072702;28;20441;-62
2023/08/08 02:56:20;;;;;;;4.63;1.77;;;;;;;20.04;61.55;100433.63;5107538;28;20214;-62
2023/08/08 02:58:45;;;;;;;5.20;1.50;;;;;;;20.04;61.33;100439.38;5099775;28;20194;-62
2023/08/08 03:01:13;;;;;;;3.13;1.67;;;;;;;20.04;61.33;100440.22;5069727;28;20164;-62
2023/08/08 03:03:38;;;;;;;3.50;1.37;;;;;;;20.04;61.49;100445.94;5071986;28;20213;-63
2023/08/08 03:06:04;;;;;;;4.40;1.57;;;;;;;20.03;61.08;100444.31;5068243;28;20440;-62
2023/08/08 03:08:30;;;;;;;2.80;1.67;;;;;;;20.04;61.28;100451.69;5068639;28;20921;-63
2023/08/08 03:10:55;;;;;;;3.50;1.80;;;;;;;20.03;61.37;100449.19;5079848;28;20501;-62
2023/08/08 03:13:22;;;;;;;3.27;1.73;;;;;;;20.02;61.73;100451.22;5070745;28;20236;-62
2023/08/08 03:15:48;;;;;;;2.97;1.70;;;;;;;20.02;61.43;100445.50;5086026;28;20258;-62
2023/08/08 03:18:13;;;;;;;3.80;1.70;;;;;;;20.03;61.51;100454.91;5076091;28;21309;-62
2023/08/08 03:20:38;;;;;;;2.97;1.43;;;;;;;20.02;61.50;100450.41;5084123;28;20175;-62
2023/08/08 03:23:04;;;;;;;3.60;1.47;;;;;;;20.02;61.48;100447.53;5071460;28;20629;-62
2023/08/08 03:25:29;;;;;;;2.70;1.60;;;;;;;20.02;61.36;100436.09;5070634;28;20560;-63
2023/08/08 03:27:55;;;;;;;2.87;1.30;;;;;;;20.01;60.97;100437.31;5073115;28;20536;-62
2023/08/08 03:30:20;;;;;;;3.83;1.70;;;;;;;20.01;61.72;100445.91;5067381;28;20159;-62
2023/08/08 03:32:46;;;;;;;2.23;1.40;;;;;;;20.00;61.36;100447.94;5068547;28;20175;-63
2023/08/08 03:35:11;;;;;;;3.87;1.40;;;;;;;20.01;61.39;100457.38;5067853;28;20179;-62
2023/08/08 03:37:37;;;;;;;3.60;1.37;;;;;;;20.00;60.92;100450.78;5070200;28;20235;-62
2023/08/08 03:40:03;;;;;;;4.53;1.73;;;;;;;20.00;61.39;100450.78;5067813;28;20177;-62
2023/08/08 03:42:28;;;;;;;3.27;1.50;;;;;;;19.98;61.00;100450.38;5081419;28;20806;-62
2023/08/08 03:44:54;;;;;;;3.73;1.57;;;;;;;20.00;61.30;100456.53;5084220;28;20653;-62
2023/08/08 03:47:19;;;;;;;2.77;1.50;;;;;;;19.99;61.22;100454.88;5069513;28;20512;-62
2023/08/08 03:49:45;;;;;;;3.83;1.53;;;;;;;20.00;61.47;100455.69;5068329;28;20229;-62
2023/08/08 03:52:10;;;;;;;2.70;1.30;;;;;;;19.98;61.34;100446.66;5083337;28;20243;-62
2023/08/08 03:54:35;;;;;;;3.50;1.50;;;;;;;19.98;61.25;100447.50;5087849;28;20174;-62
2023/08/08 03:57:01;;;;;;;2.10;1.30;;;;;;;19.98;61.11;100441.78;5089012;28;20190;-63
2023/08/08 03:59:26;;;;;;;2.83;1.40;;;;;;;19.97;61.40;100445.03;5088101;28;20158;-63
2023/08/08 04:01:52;;;;;;;2.60;1.20;;;;;;;19.99;61.39;100446.28;5070900;28;20596;-62
2023/08/08 04:04:17;;;;;;;3.10;1.73;;;;;;;19.99;61.06;100454.03;5073553;28;20563;-62
2023/08/08 04:06:43;;;;;;;3.33;1.50;;;;;;;19.98;61.25;100440.94;5083783;28;20606;-62
2023/08/08 04:09:08;;;;;;;4.37;1.50;;;;;;;19.98;61.38;100447.50;5088725;28;20185;-62
2023/08/08 04:11:35;;;;;;;3.07;1.40;;;;;;;19.98;61.37;100452.41;5073136;28;20218;-62
2023/08/08 04:14:01;;;;;;;3.17;1.37;;;;;;;19.97;61.30;100457.28;5070436;28;20185;-62
2023/08/08 04:16:27;;;;;;;2.63;1.33;;;;;;;19.97;61.24;100454.41;5088260;28;20503;-62
2023/08/08 04:18:52;;;;;;;2.67;1.40;;;;;;;19.98;61.09;100458.13;5081296;28;20525;-62
2023/08/08 04:21:17;;;;;;;3.60;1.50;;;;;;;19.97;61.24;100457.28;5084347;28;20194;-62
2023/08/08 04:23:43;;;;;;;3.37;1.70;;;;;;;19.98;61.14;100461.00;5084175;28;20282;-62
2023/08/08 04:26:08;;;;;;;3.47;1.50;;;;;;;19.96;61.32;100455.63;5072191;28;20186;-62
2023/08/08 04:28:34;;;;;;;3.60;1.40;;;;;;;19.97;61.03;100462.22;5066296;28;20164;-62
2023/08/08 04:30:59;;;;;;;8.00;2.03;;;;;;;19.95;61.32;100471.19;5067206;28;20176;-62
2023/08/08 04:33:25;;;;;;;4.00;1.40;;;;;;;19.96;61.18;100467.09;5066657;28;20943;-62
2023/08/08 04:35:50;;;;;;;3.37;1.20;;;;;;;19.97;61.43;100476.53;5069434;28;20724;-62
2023/08/08 04:38:16;;;;;;;4.27;1.97;;;;;;;19.96;61.39;100469.97;5067064;28;20689;-62
2023/08/08 04:40:41;;;;;;;8.80;1.40;;;;;;;19.96;61.14;100472.03;5071631;28;20183;-62
2023/08/08 04:43:07;;;;;;;3.00;1.50;;;;;;;19.95;61.39;100465.47;5067870;28;20261;-63
2023/08/08 04:45:33;;;;;;;6.50;1.57;;;;;;;19.95;61.23;100462.59;5068353;28;20257;-63
2023/08/08 04:47:58;;;;;;;3.20;1.50;;;;;;;19.95;61.19;100465.47;5067961;28;20156;-62
2023/08/08 04:50:24;;;;;;;9.10;2.13;;;;;;;19.95;60.80;100473.22;5081444;28;20493;-62
2023/08/08 04:52:49;;;;;;;3.87;2.00;;;;;;;19.95;61.24;100467.47;5088247;28;20239;-62
2023/08/08 04:55:15;;;;;;;2.40;1.57;;;;;;;19.94;61.18;100469.53;5097993;28;20173;-62
2023/08/08 04:57:40;;;;;;;3.20;1.60;;;;;;;19.95;61.15;100467.47;5106654;28;20246;-62
2023/08/08 05:00:08;;;;;;;2.60;1.57;;;;;;;19.94;61.24;100474.44;5084855;28;20186;-62
2023/08/08 05:02:34;;;;;;;2.83;1.40;;;;;;;19.93;61.09;100470.75;5084895;28;20202;-63
2023/08/08 05:05:00;;;;;;;3.43;1.33;;;;;;;19.94;60.93;100469.53;5088410;28;20462;-63
2023/08/08 05:07:26;;;;;;;2.43;1.30;;;;;;;19.93;61.29;100473.63;5086701;28;20942;-62
2023/08/08 05:09:52;;;;;;;4.30;1.70;;;;;;;19.94;61.35;100471.56;5091164;28;20186;-62
2023/08/08 05:12:17;;;;;;;4.77;1.67;;;;;;;19.93;61.33;100465.03;5088531;28;20427;-62
2023/08/08 05:14:43;;;;;;;2.87;1.43;;;;;;;19.94;61.59;100471.56;5083129;28;20591;-63
2023/08/08 05:17:08;;;;;;;2.50;1.23;;;;;;;19.94;61.27;100472.41;5084189;28;20233;-62
2023/08/08 05:19:33;;;;;;;5.80;1.50;;;;;;;19.94;61.31;100469.53;5073451;28;20654;-62
2023/08/08 05:21:59;;;;;;;4.20;1.53;;;;;;;19.93;61.31;100470.75;5070958;28;20159;-62
2023/08/08 05:24:25;;;;;;;2.90;1.30;;;;;;;19.93;61.15;100455.59;5070921;28;20178;-62
2023/08/08 05:26:51;;;;;;;2.40;1.37;;;;;;;19.92;61.29;100462.53;5070783;28;20194;-63
2023/08/08 05:29:16;;;;;;;4.37;1.50;;;;;;;19.92;61.31;100471.13;5070365;28;20156;-62
2023/08/08 05:31:41;;;;;;;2.80;1.60;;;;;;;19.93;61.10;100469.91;5072852;28;20196;-62
2023/08/08 05:34:07;;;;;;;3.60;1.30;;;;;;;19.92;61.30;100466.22;5069341;28;20167;-62
2023/08/08 05:36:32;;;;;;;2.70;1.60;;;;;;;19.93;61.18;100464.19;5071074;28;20182;-62
2023/08/08 05:38:58;;;;;;;5.80;1.77;;;;;;;19.92;61.49;100469.09;5070545;28;20215;-62
2023/08/08 05:41:23;;;;;;;4.27;2.23;;;;;;;19.91;61.34;100467.44;5079116;28;20248;-62
2023/08/08 05:43:49;;;;;;;4.90;1.87;;;;;;;19.92;61.09;100463.34;5088527;28;20198;-63
2023/08/08 05:46:14;;;;;;;5.20;1.40;;;;;;;19.92;61.39;100466.22;5071129;28;20183;-62
2023/08/08 05:48:40;;;;;;;3.53;1.33;;;;;;;19.92;61.39;100469.09;5080429;28;20695;-63
2023/08/08 05:51:05;;;;;;;2.90;1.40;;;;;;;19.91;61.44;100464.56;5089959;28;20618;-62
2023/08/08 05:53:33;;;;;;;3.27;1.73;;;;;;;19.92;61.11;100465.41;5072268;28;20650;-62
2023/08/08 05:55:59;;;;;;;3.17;1.70;;;;;;;19.91;61.15;100473.16;5068606;28;20191;-62
2023/08/08 05:58:24;;;;;;;3.33;1.87;;;;;;;19.91;61.17;100466.63;5079349;28;20989;-63
2023/08/08 06:00:50;;;;;;;4.93;1.37;;;;;;;19.91;60.99;100470.31;5090076;28;20174;-62
2023/08/08 06:03:15;;;;;;;2.60;1.50;;;;;;;19.89;61.11;100469.88;5090223;28;20258;-62
2023/08/08 06:05:41;;;;;;;2.70;1.30;;;;;;;19.90;61.20;100474.38;5084788;28;20193;-63
2023/08/08 06:08:11;;;;;;;3.07;1.47;;;;;;;19.90;60.98;100480.13;5082560;28;20189;-62
2023/08/08 06:10:37;;;;;;;2.30;1.37;;;;;;;19.90;61.21;100479.28;5090833;28;20193;-63
2023/08/08 06:13:02;;;;;;;3.10;1.47;;;;;;;19.89;61.15;100481.34;5086955;28;20444;-63
2023/08/08 06:15:27;;;;;;;4.30;1.30;;;;;;;19.89;61.00;100478.47;5088509;28;20183;-62
2023/08/08 06:17:53;;;;;;;3.53;1.57;;;;;;;19.88;61.09;100488.28;5071445;28;20195;-63
2023/08/08 06:20:18;;;;;;;5.10;1.40;;;;;;;19.89;61.49;100483.38;5072923;28;20189;-63
2023/08/08 06:22:44;;;;;;;6.90;1.63;;;;;;;19.89;60.90;100481.34;5070042;28;20177;-62
2023/08/08 06:25:10;;;;;;;2.37;1.50;;;;;;;19.90;61.14;100485.00;5072017;28;20291;-63
2023/08/08 06:27:36;;;;;;;2.57;1.60;;;;;;;19.89;60.95;100484.19;5069748;28;20622;-63
2023/08/08 06:30:02;;;;;;;3.10;1.50;;;;;;;19.89;61.03;100477.63;5069235;28;20505;-63
2023/08/08 06:32:28;;;;;;;4.20;1.23;;;;;;;19.89;61.19;100481.34;5077033;28;20556;-63
2023/08/08 06:34:54;;;;;;;4.17;1.50;;;;;;;19.89;61.34;100474.75;5077315;28;20512;-63
2023/08/08 06:37:20;;;;;;;2.50;1.10;;;;;;;19.87;61.23;100480.88;5080749;28;20210;-63
2023/08/08 06:39:45;;;;;;;2.93;1.60;;;;;;;19.88;61.16;100475.97;5079383;28;20432;-64
2023/08/08 06:42:11;;;;;;;3.53;1.43;;;;;;;19.88;61.11;100479.69;5077088;28;20167;-63
2023/08/08 06:44:44;;;;;;;2.30;1.60;;;;;;;19.89;60.88;100486.22;5080852;28;20186;-64
2023/08/08 06:47:09;;;;;;;4.30;1.70;;;;;;;19.88;61.33;100478.84;5072715;28;20286;-64
2023/08/08 06:49:35;;;;;;;3.50;1.93;;;;;;;19.88;61.15;100475.97;5075232;28;20444;-63
2023/08/08 06:52:01;;;;;;;2.40;1.53;;;;;;;19.87;61.27;100475.16;5080415;28;20467;-64
2023/08/08 06:54:29;;;;;;;3.63;1.60;;;;;;;19.87;60.88;100475.16;5076423;28;20158;-64
2023/08/08 06:56:56;;;;;;;2.03;1.30;;;;;;;19.87;61.01;100469.41;5100199;28;20175;-63
2023/08/08 06:59:22;;;;;;;3.23;1.60;;;;;;;19.87;61.43;100472.28;5070900;28;20427;-64
2023/08/08 07:01:48;;;;;;;3.93;1.50;;;;;;;19.85;60.86;100466.13;5087588;28;20428;-64
2023/08/08 07:04:14;;;;;;;3.60;1.47;;;;;;;19.86;60.71;100459.16;5084713;28;20414;-64
2023/08/08 07:06:39;;;;;;;3.30;1.77;;;;;;;19.88;61.13;100464.53;5076653;28;20183;-63
2023/08/08 07:09:06;;;;;;;2.40;1.33;;;;;;;19.87;61.32;100468.59;5073050;28;20177;-64
2023/08/08 07:11:31;;;;;;;2.20;1.30;;;;;;;19.85;61.36;100465.28;5080605;28;20599;-63
2023/08/08 07:13:57;;;;;;;2.60;1.40;;;;;;;19.85;61.47;100468.16;5076182;28;20466;-63
2023/08/08 07:16:22;;;;;;;4.43;1.30;;;;;;;19.86;61.02;100467.78;5080043;28;20215;-63
2023/08/08 07:18:48;;;;;;;4.17;1.50;;;;;;;19.88;60.93;100464.53;5077075;28;20218;-64
2023/08/08 07:21:14;;;;;;;6.50;1.53;;;;;;;19.87;61.07;100463.69;5080189;28;20224;-63
2023/08/08 07:23:40;;;;;;;2.23;1.40;;;;;;;19.86;61.04;100462.03;5079717;28;20242;-63
2023/08/08 07:26:05;;;;;;;3.37;1.50;;;;;;;19.87;61.06;100460.81;5083727;28;20530;-64
2023/08/08 07:28:32;;;;;;;3.00;1.50;;;;;;;19.87;61.36;100449.34;5080314;28;20198;-63
2023/08/08 07:30:57;;;;;;;5.43;1.60;;;;;;;19.87;61.21;100457.94;5085796;28;20193;-64
2023/08/08 07:33:23;;;;;;;2.73;1.50;;;;;;;20.00;61.74;100445.06;5074763;28;20428;-61
2023/08/08 07:35:49;;;;;;;3.00;1.40;;;;;;;20.22;62.01;100447.03;5078232;28;20199;-60
2023/08/08 07:38:15;;;;;;;7.73;2.07;;;;;;;20.57;64.58;100453.22;5051914;28;20206;-60
2023/08/08 07:40:41;;;;;;;8.20;3.37;;;;;;;20.73;63.91;100445.22;5050416;28;20687;-61
2023/08/08 07:43:06;;;;;;;8.40;2.93;;;;;;;20.69;65.24;100457.88;5082887;28;20588;-60
2023/08/08 07:45:32;;;;;;;8.10;2.37;;;;;;;20.54;65.01;100450.31;5057674;28;20191;-60
2023/08/08 07:47:57;;;;;;;8.00;2.37;;;;;;;20.40;65.30;100456.72;5068869;28;20727;-60
2023/08/08 07:50:23;;;;;;;4.33;1.87;;;;;;;20.38;65.08;100461.19;5080703;28;20825;-60
2023/08/08 07:52:48;;;;;;;3.60;1.73;;;;;;;20.30;65.05;100460.25;5071652;28;20601;-60
2023/08/08 07:55:13;;;;;;;5.00;1.70;;;;;;;20.33;63.52;100465.22;5069723;28;20662;-60
2023/08/08 07:57:39;;;;;;;4.20;2.10;;;;;;;20.37;63.15;100456.66;5079703;28;21042;-60
2023/08/08 08:00:11;;;;;;;4.00;2.20;;;;;;;20.32;63.11;100449.22;5080508;28;20185;-60
2023/08/08 08:02:37;;;;;;;5.43;2.37;;;;;;;20.28;62.63;100450.41;5061334;28;20218;-59
2023/08/08 08:05:05;;;;;;;4.23;1.50;;;;;;;20.29;63.06;100440.56;5075804;28;20847;-60
2023/08/08 08:07:31;;;;;;;4.20;1.37;;;;;;;20.27;62.39;100448.75;5071283;28;20540;-60
2023/08/08 08:09:57;;;;;;;6.47;1.80;;;;;;;20.49;62.84;100444.94;5079109;28;20439;-60
2023/08/08 08:12:22;;;;;;;4.40;2.37;;;;;;;20.68;62.72;100445.56;5080902;28;20437;-60
2023/08/08 08:14:48;;;;;;;5.60;2.47;;;;;;;20.58;63.57;100442.59;5074693;28;20183;-60
2023/08/08 08:17:13;;;;;;;6.13;2.00;;;;;;;20.53;62.39;100440.88;5071944;28;20231;-60
2023/08/08 08:19:38;;;;;;;3.40;1.60;;;;;;;20.52;62.65;100439.22;5076768;28;20205;-61
2023/08/08 08:22:04;;;;;;;5.70;2.00;;;;;;;20.51;62.29;100434.72;5075974;28;20183;-59
2023/08/08 08:24:30;;;;;;;4.13;1.63;;;;;;;20.46;62.47;100432.19;5030365;28;20171;-59
2023/08/08 08:26:55;;;;;;;2.57;1.53;;;;;;;20.42;62.40;100431.31;5048292;28;20175;-60
2023/08/08 08:29:20;;;;;;;4.77;1.80;;;;;;;20.42;61.82;100436.25;5050864;28;20525;-60
2023/08/08 08:31:46;;;;;;;7.20;2.60;;;;;;;20.42;61.76;100430.50;5077385;28;20174;-61
2023/08/08 08:34:11;;;;;;;5.23;1.70;;;;;;;20.42;61.76;100434.19;5068634;28;20181;-61
2023/08/08 08:36:37;;;;;;;4.70;1.67;;;;;;;20.43;61.45;100433.00;5072662;28;20236;-59
2023/08/08 08:39:03;;;;;;;5.27;1.80;;;;;;;20.41;61.66;100426.81;5072822;28;20217;-59
2023/08/08 08:41:28;;;;;;;5.47;1.67;;;;;;;20.40;61.21;100433.78;5076368;28;21021;-60
2023/08/08 08:43:54;;;;;;;3.83;1.80;;;;;;;20.36;61.29;100432.88;5072871;28;20420;-60
2023/08/08 08:46:21;;;;;;;3.77;1.60;;;;;;;20.35;61.04;100439.00;5073468;28;20207;-61
2023/08/08 08:48:46;;;;;;;4.97;1.67;;;;;;;20.31;61.08;100433.22;5067692;28;20298;-60
2023/08/08 08:51:12;;;;;;;3.17;1.60;;;;;;;20.38;61.29;100430.47;5073792;28;20429;-60
2023/08/08 08:53:39;;;;;;;2.80;1.23;;;;;;;20.39;60.98;100423.53;5074514;28;20833;-60
2023/08/08 08:56:05;;;;;;;4.37;1.53;;;;;;;20.41;61.19;100426.00;5073702;28;20177;-62
2023/08/08 08:58:30;;;;;;;3.03;1.73;;;;;;;20.39;61.59;100419.81;5079619;28;21320;-60
2023/08/08 09:00:56;;;;;;;3.57;1.50;;;;;;;20.39;60.80;100426.38;5083357;28;20186;-58
2023/08/08 09:03:22;;;;;;;5.87;1.50;;;;;;;20.37;61.53;100417.31;5077595;28;20190;-59
2023/08/08 09:05:48;;;;;;;3.50;1.80;;;;;;;20.34;61.84;100418.13;5066526;28;20441;-60
2023/08/08 09:08:15;;;;;;;3.87;1.80;;;;;;;20.32;61.43;100414.81;5066964;28;20194;-60
2023/08/08 09:10:40;;;;;;;8.20;1.70;;;;;;;20.32;60.86;100417.69;5077355;28;20343;-60
2023/08/08 09:13:06;;;;;;;2.73;1.63;;;;;;;20.31;61.02;100416.03;5067664;28;20406;-59
2023/08/08 09:15:34;;;;;;;2.57;1.60;;;;;;;20.31;61.26;100410.28;5086186;28;20179;-60
2023/08/08 09:18:00;;;;;;;2.90;1.50;;;;;;;20.30;61.41;100410.69;5081065;28;20194;-59
2023/08/08 09:20:27;;;;;;;3.40;1.70;;;;;;;20.27;61.45;100403.69;5066001;28;20436;-59
2023/08/08 09:22:53;;;;;;;3.40;1.60;;;;;;;20.27;61.47;100402.88;5075677;28;20443;-58
2023/08/08 09:25:19;;;;;;;5.23;1.60;;;;;;;20.29;60.76;100400.44;5085031;28;20425;-59
2023/08/08 09:27:44;;;;;;;2.80;1.43;;;;;;;20.30;61.47;100390.59;5084416;28;20183;-59
2023/08/08 09:30:11;;;;;;;4.80;1.93;;;;;;;20.33;61.35;100402.16;5067133;28;20182;-60
2023/08/08 09:32:36;;;;;;;4.80;1.83;;;;;;;20.33;61.32;100398.44;5068112;28;20203;-61
2023/08/08 09:35:02;;;;;;;3.57;1.90;;;;;;;20.32;62.24;100397.59;5069651;28;20440;-60
2023/08/08 09:37:28;;;;;;;4.13;1.47;;;;;;;20.34;61.78;100408.69;5065720;28;20309;-60
2023/08/08 09:39:59;;;;;;;3.53;1.87;;;;;;;20.33;62.00;100402.16;5067157;28;20186;-60
2023/08/08 09:42:29;;;;;;;4.60;1.77;;;;;;;20.36;61.90;100394.81;5084947;28;20204;-60
2023/08/08 09:44:56;;;;;;;5.93;2.03;;;;;;;20.32;62.03;100396.78;5080018;28;20422;-59
2023/08/08 09:47:22;;;;;;;3.80;1.47;;;;;;;20.32;62.56;100396.78;5085750;28;20515;-60
2023/08/08 09:49:47;;;;;;;4.60;1.80;;;;;;;20.29;61.35;100389.81;5087610;28;20432;-60
2023/08/08 09:52:13;;;;;;;4.70;1.53;;;;;;;20.30;62.08;100390.59;5084651;28;20538;-60
2023/08/08 09:54:38;;;;;;;3.37;1.73;;;;;;;20.30;61.62;100390.59;5091154;28;20499;-60
2023/08/08 09:57:04;;;;;;;4.20;1.63;;;;;;;20.30;61.90;100393.47;5090760;28;20939;-59
2023/08/08 09:59:29;;;;;;;3.50;2.07;;;;;;;20.30;62.19;100385.72;5073023;28;20568;-60
2023/08/08 10:01:55;;;;;;;2.77;1.53;;;;;;;20.31;61.73;100387.34;5088950;28;20171;-59
2023/08/08 10:04:21;;;;;;;2.63;1.40;;;;;;;20.32;62.34;100389.00;5088276;28;20922;-60
2023/08/08 10:06:46;;;;;;;3.63;1.50;;;;;;;20.29;62.20;100389.81;5085656;28;20444;-60
2023/08/08 10:09:12;;;;;;;3.97;1.80;;;;;;;20.30;61.66;100390.59;5089666;28;20174;-60
2023/08/08 10:11:37;;;;;;;5.00;1.60;;;;;;;20.29;61.98;100398.41;5089585;28;20166;-59
2023/08/08 10:14:04;;;;;;;2.40;1.50;;;;;;;20.28;62.41;100393.91;5079672;28;20581;-59
2023/08/08 10:16:33;;;;;;;3.80;1.57;;;;;;;20.29;61.67;100389.81;5090513;28;20329;-59
2023/08/08 10:18:59;;;;;;;6.00;1.70;;;;;;;20.29;61.89;100381.19;5090938;28;20440;-60
2023/08/08 10:21:25;;;;;;;4.30;1.67;;;;;;;20.31;62.15;100377.94;5078975;28;20451;-60
2023/08/08 10:24:01;;;;;;;4.20;1.80;;;;;;;20.31;61.39;100384.50;5072771;28;20430;-60
2023/08/08 10:26:28;;;;;;;4.73;2.00;;;;;;;20.32;61.77;100373.84;5072036;28;20197;-60
2023/08/08 10:28:56;;;;;;;3.90;1.87;;;;;;;20.31;61.68;100381.63;5084268;28;20442;-60
2023/08/08 10:31:22;;;;;;;5.67;1.83;;;;;;;20.30;61.25;100379.97;5068318;28;20433;-60
2023/08/08 10:33:47;;;;;;;3.30;1.53;;;;;;;20.31;60.97;100375.88;5070603;28;20463;-59
2023/08/08 10:36:13;;;;;;;4.87;1.50;;;;;;;20.33;61.12;100364.03;5069995;28;20636;-59
2023/08/08 10:38:39;;;;;;;2.43;1.47;;;;;;;20.33;61.68;100373.47;5072388;28;20238;-60
2023/08/08 10:41:05;;;;;;;3.43;1.40;;;;;;;20.35;60.73;100364.47;5069421;28;20187;-60
2023/08/08 10:43:30;;;;;;;2.97;1.63;;;;;;;20.37;61.22;100362.84;5075745;28;20455;-60
2023/08/08 10:46:03;;;;;;;2.43;1.40;;;;;;;20.36;60.76;100361.19;5086678;28;20223;-60
2023/08/08 10:48:28;;;;;;;3.60;1.60;;;;;;;20.39;60.47;100366.16;5087291;28;20199;-60
2023/08/08 10:51:05;;;;;;;4.03;1.70;;;;;;;20.39;60.27;100360.44;5087373;28;20427;-60
2023/08/08 10:53:31;;;;;;;4.60;1.73;;;;;;;20.37;59.96;100367.78;5088971;28;20284;-59
2023/08/08 10:56:01;;;;;;;2.37;1.50;;;;;;;20.38;60.06;100364.53;5079632;28;20936;-60
2023/08/08 10:58:39;;;;;;;3.13;1.50;;;;;;;20.42;59.72;100368.22;5081961;28;20202;-60
2023/08/08 11:01:07;;;;;;;4.10;1.90;;;;;;;20.40;59.54;100364.09;5077165;28;20490;-61
2023/08/08 11:03:34;;;;;;;3.30;1.70;;;;;;;20.39;59.62;100360.44;5071977;28;21065;-60
2023/08/08 11:05:59;;;;;;;5.77;1.70;;;;;;;20.42;59.19;100362.50;5057922;28;20433;-60
2023/08/08 11:08:25;;;;;;;3.57;1.60;;;;;;;20.42;59.09;100361.69;5078853;28;20432;-60
2023/08/08 11:10:51;;;;;;;2.47;1.60;;;;;;;20.40;59.41;100353.47;5085366;28;20174;-59
2023/08/08 11:13:17;;;;;;;3.00;1.40;;;;;;;20.39;58.87;100360.44;5076878;28;20198;-61
2023/08/08 11:15:42;;;;;;;4.63;1.50;;;;;;;20.42;59.56;100365.38;5081078;28;20983;-60
2023/08/08 11:18:09;;;;;;;4.30;1.50;;;;;;;20.41;59.13;100349.38;5076154;28;20186;-60